sensor_id;sensor_type;location;lat;lon;timestamp;P1;durP1;ratioP1;P2;durP2;ratioP2
9128;SDS011;4599;50.906;6.786;2023-04-03T00:01:59;2.37;;;1.60;;
9128;SDS011;4599;50.906;6.786;2023-04-03T00:06:01;3.53;;;1.73;;
9128;SDS011;4599;50.906;6.786;2023-04-03T00:10:03;3.40;;;2.00;;
9128;SDS011;4599;50.906;6.786;2023-04-03T00:14:05;3.20;;;1.93;;
9128;SDS011;4599;50.906;6.786;2023-04-03T00:18:08;2.63;;;1.90;;
9128;SDS011;4599;50.906;6.786;2023-04-03T00:22:11;3.67;;;2.17;;
9128;SDS011;4599;50.906;6.786;2023-04-03T00:26:12;4.07;;;2.27;;
9128;SDS011;4599;50.906;6.786;2023-04-03T00:30:16;3.30;;;2.20;;
9128;SDS011;4599;50.906;6.786;2023-04-03T00:34:20;2.73;;;2.00;;
9128;SDS011;4599;50.906;6.786;2023-04-03T00:38:22;3.57;;;2.30;;
9128;SDS011;4599;50.906;6.786;2023-04-03T00:42:24;3.37;;;2.37;;
9128;SDS011;4599;50.906;6.786;2023-04-03T00:46:25;3.23;;;2.23;;
9128;SDS011;4599;50.906;6.786;2023-04-03T00:50:28;8.03;;;2.43;;
9128;SDS011;4599;50.906;6.786;2023-04-03T00:54:30;3.90;;;2.70;;
9128;SDS011;4599;50.906;6.786;2023-04-03T00:58:33;5.80;;;3.40;;
9128;SDS011;4599;50.906;6.786;2023-04-03T01:02:38;7.03;;;3.70;;
9128;SDS011;4599;50.906;6.786;2023-04-03T01:06:41;5.73;;;3.97;;
9128;SDS011;4599;50.906;6.786;2023-04-03T01:10:45;4.80;;;4.17;;
9128;SDS011;4599;50.906;6.786;2023-04-03T01:14:48;7.67;;;4.30;;
9128;SDS011;4599;50.906;6.786;2023-04-03T01:18:51;8.10;;;4.17;;
9128;SDS011;4599;50.906;6.786;2023-04-03T01:22:56;7.23;;;4.70;;
9128;SDS011;4599;50.906;6.786;2023-04-03T01:27:07;9.40;;;4.63;;
9128;SDS011;4599;50.906;6.786;2023-04-03T01:31:13;6.17;;;4.33;;
9128;SDS011;4599;50.906;6.786;2023-04-03T01:35:23;6.57;;;4.43;;
9128;SDS011;4599;50.906;6.786;2023-04-03T01:39:24;6.57;;;4.17;;
9128;SDS011;4599;50.906;6.786;2023-04-03T01:43:26;7.60;;;4.33;;
9128;SDS011;4599;50.906;6.786;2023-04-03T01:47:28;7.57;;;4.63;;
9128;SDS011;4599;50.906;6.786;2023-04-03T01:51:32;7.07;;;4.20;;
9128;SDS011;4599;50.906;6.786;2023-04-03T01:55:33;8.43;;;4.17;;
9128;SDS011;4599;50.906;6.786;2023-04-03T01:59:35;7.70;;;4.33;;
9128;SDS011;4599;50.906;6.786;2023-04-03T02:03:37;6.13;;;4.13;;
9128;SDS011;4599;50.906;6.786;2023-04-03T02:07:40;6.27;;;4.10;;
9128;SDS011;4599;50.906;6.786;2023-04-03T02:11:42;4.80;;;3.87;;
9128;SDS011;4599;50.906;6.786;2023-04-03T02:15:43;7.90;;;4.17;;
9128;SDS011;4599;50.906;6.786;2023-04-03T02:19:45;6.87;;;3.57;;
9128;SDS011;4599;50.906;6.786;2023-04-03T02:23:48;7.87;;;4.00;;
9128;SDS011;4599;50.906;6.786;2023-04-03T02:27:50;5.00;;;3.50;;
9128;SDS011;4599;50.906;6.786;2023-04-03T02:31:51;4.80;;;3.83;;
9128;SDS011;4599;50.906;6.786;2023-04-03T02:35:53;3.90;;;3.57;;
9128;SDS011;4599;50.906;6.786;2023-04-03T02:39:56;5.50;;;3.90;;
9128;SDS011;4599;50.906;6.786;2023-04-03T02:43:58;4.87;;;3.83;;
9128;SDS011;4599;50.906;6.786;2023-04-03T02:48:00;5.63;;;3.73;;
9128;SDS011;4599;50.906;6.786;2023-04-03T02:52:02;5.67;;;3.73;;
9128;SDS011;4599;50.906;6.786;2023-04-03T02:56:05;6.03;;;4.20;;
9128;SDS011;4599;50.906;6.786;2023-04-03T03:00:07;8.03;;;4.10;;
9128;SDS011;4599;50.906;6.786;2023-04-03T03:04:09;5.07;;;4.20;;
9128;SDS011;4599;50.906;6.786;2023-04-03T03:08:11;5.93;;;4.20;;
9128;SDS011;4599;50.906;6.786;2023-04-03T03:12:15;5.93;;;3.90;;
9128;SDS011;4599;50.906;6.786;2023-04-03T03:16:16;5.17;;;3.50;;
9128;SDS011;4599;50.906;6.786;2023-04-03T03:20:18;5.63;;;3.30;;
9128;SDS011;4599;50.906;6.786;2023-04-03T03:24:19;5.47;;;3.20;;
9128;SDS011;4599;50.906;6.786;2023-04-03T03:28:22;6.27;;;3.57;;
9128;SDS011;4599;50.906;6.786;2023-04-03T03:32:24;3.60;;;3.10;;
9128;SDS011;4599;50.906;6.786;2023-04-03T03:36:26;4.93;;;3.40;;
9128;SDS011;4599;50.906;6.786;2023-04-03T03:40:27;6.10;;;3.63;;
9128;SDS011;4599;50.906;6.786;2023-04-03T03:44:30;4.63;;;3.40;;
9128;SDS011;4599;50.906;6.786;2023-04-03T03:48:32;7.23;;;3.40;;
9128;SDS011;4599;50.906;6.786;2023-04-03T03:52:33;4.57;;;3.23;;
9128;SDS011;4599;50.906;6.786;2023-04-03T03:56:35;5.13;;;3.40;;
9128;SDS011;4599;50.906;6.786;2023-04-03T04:00:38;3.97;;;2.90;;
9128;SDS011;4599;50.906;6.786;2023-04-03T04:04:39;5.50;;;3.37;;
9128;SDS011;4599;50.906;6.786;2023-04-03T04:08:41;3.80;;;2.50;;
9128;SDS011;4599;50.906;6.786;2023-04-03T04:12:43;4.73;;;3.20;;
9128;SDS011;4599;50.906;6.786;2023-04-03T04:16:46;6.67;;;2.80;;
9128;SDS011;4599;50.906;6.786;2023-04-03T04:20:48;4.70;;;3.27;;
9128;SDS011;4599;50.906;6.786;2023-04-03T04:24:49;7.03;;;2.80;;
9128;SDS011;4599;50.906;6.786;2023-04-03T04:28:51;4.97;;;3.20;;
9128;SDS011;4599;50.906;6.786;2023-04-03T04:32:53;3.00;;;2.70;;
9128;SDS011;4599;50.906;6.786;2023-04-03T04:36:56;5.77;;;3.13;;
9128;SDS011;4599;50.906;6.786;2023-04-03T04:40:58;2.77;;;2.43;;
9128;SDS011;4599;50.906;6.786;2023-04-03T04:45:00;5.13;;;2.80;;
9128;SDS011;4599;50.906;6.786;2023-04-03T04:49:02;4.23;;;2.70;;
9128;SDS011;4599;50.906;6.786;2023-04-03T04:53:04;4.43;;;2.90;;
9128;SDS011;4599;50.906;6.786;2023-04-03T04:57:06;5.37;;;2.90;;
9128;SDS011;4599;50.906;6.786;2023-04-03T05:01:09;5.33;;;2.60;;
9128;SDS011;4599;50.906;6.786;2023-04-03T05:05:13;3.47;;;2.57;;
9128;SDS011;4599;50.906;6.786;2023-04-03T05:09:15;5.63;;;2.47;;
9128;SDS011;4599;50.906;6.786;2023-04-03T05:13:17;3.57;;;2.47;;
9128;SDS011;4599;50.906;6.786;2023-04-03T05:17:18;7.63;;;4.50;;
9128;SDS011;4599;50.906;6.786;2023-04-03T05:21:21;7.40;;;4.57;;
9128;SDS011;4599;50.906;6.786;2023-04-03T05:25:23;5.03;;;2.83;;
9128;SDS011;4599;50.906;6.786;2023-04-03T05:29:27;5.40;;;2.80;;
9128;SDS011;4599;50.906;6.786;2023-04-03T05:33:28;5.30;;;2.50;;
9128;SDS011;4599;50.906;6.786;2023-04-03T05:37:31;4.00;;;2.33;;
9128;SDS011;4599;50.906;6.786;2023-04-03T05:41:33;4.33;;;2.60;;
9128;SDS011;4599;50.906;6.786;2023-04-03T05:45:35;3.43;;;2.30;;
9128;SDS011;4599;50.906;6.786;2023-04-03T05:49:36;4.70;;;2.33;;
9128;SDS011;4599;50.906;6.786;2023-04-03T05:53:39;4.77;;;2.40;;
9128;SDS011;4599;50.906;6.786;2023-04-03T05:57:42;4.87;;;2.53;;
9128;SDS011;4599;50.906;6.786;2023-04-03T06:01:43;3.53;;;2.30;;
9128;SDS011;4599;50.906;6.786;2023-04-03T06:05:45;3.57;;;2.03;;
9128;SDS011;4599;50.906;6.786;2023-04-03T06:09:48;4.33;;;2.30;;
9128;SDS011;4599;50.906;6.786;2023-04-03T06:13:50;5.87;;;2.50;;
9128;SDS011;4599;50.906;6.786;2023-04-03T06:17:52;3.87;;;2.10;;
9128;SDS011;4599;50.906;6.786;2023-04-03T06:21:54;3.60;;;2.30;;
9128;SDS011;4599;50.906;6.786;2023-04-03T06:25:57;5.53;;;2.30;;
9128;SDS011;4599;50.906;6.786;2023-04-03T06:29:59;5.27;;;2.47;;
9128;SDS011;4599;50.906;6.786;2023-04-03T06:34:00;3.93;;;2.30;;
9128;SDS011;4599;50.906;6.786;2023-04-03T06:38:02;4.43;;;2.10;;
9128;SDS011;4599;50.906;6.786;2023-04-03T06:42:05;3.27;;;2.00;;
9128;SDS011;4599;50.906;6.786;2023-04-03T06:46:08;3.07;;;1.90;;
9128;SDS011;4599;50.906;6.786;2023-04-03T06:50:14;5.73;;;2.20;;
9128;SDS011;4599;50.906;6.786;2023-04-03T06:54:15;4.53;;;2.40;;
9128;SDS011;4599;50.906;6.786;2023-04-03T06:58:18;5.03;;;2.30;;
9128;SDS011;4599;50.906;6.786;2023-04-03T07:02:22;4.33;;;2.10;;
9128;SDS011;4599;50.906;6.786;2023-04-03T07:06:24;4.70;;;2.10;;
9128;SDS011;4599;50.906;6.786;2023-04-03T07:10:25;4.67;;;1.80;;
9128;SDS011;4599;50.906;6.786;2023-04-03T07:14:28;3.57;;;2.03;;
9128;SDS011;4599;50.906;6.786;2023-04-03T07:18:30;3.53;;;1.90;;
9128;SDS011;4599;50.906;6.786;2023-04-03T07:22:31;6.77;;;1.87;;
9128;SDS011;4599;50.906;6.786;2023-04-03T07:26:33;3.53;;;1.80;;
9128;SDS011;4599;50.906;6.786;2023-04-03T07:30:36;5.43;;;1.80;;
9128;SDS011;4599;50.906;6.786;2023-04-03T07:34:43;12.03;;;2.60;;
9128;SDS011;4599;50.906;6.786;2023-04-03T07:38:45;7.27;;;1.90;;
9128;SDS011;4599;50.906;6.786;2023-04-03T07:42:46;3.50;;;1.77;;
9128;SDS011;4599;50.906;6.786;2023-04-03T07:46:49;4.73;;;2.10;;
9128;SDS011;4599;50.906;6.786;2023-04-03T07:50:51;5.23;;;1.90;;
9128;SDS011;4599;50.906;6.786;2023-04-03T07:54:53;11.17;;;2.00;;
9128;SDS011;4599;50.906;6.786;2023-04-03T07:58:54;8.63;;;2.00;;
9128;SDS011;4599;50.906;6.786;2023-04-03T08:02:57;5.23;;;2.43;;
9128;SDS011;4599;50.906;6.786;2023-04-03T08:07:00;9.97;;;1.93;;
9128;SDS011;4599;50.906;6.786;2023-04-03T08:11:02;5.17;;;1.90;;
9128;SDS011;4599;50.906;6.786;2023-04-03T08:15:04;18.80;;;2.87;;
9128;SDS011;4599;50.906;6.786;2023-04-03T08:19:07;4.87;;;2.00;;
9128;SDS011;4599;50.906;6.786;2023-04-03T08:23:19;3.00;;;1.60;;
9128;SDS011;4599;50.906;6.786;2023-04-03T08:27:20;4.03;;;1.47;;
9128;SDS011;4599;50.906;6.786;2023-04-03T08:31:22;3.03;;;1.70;;
9128;SDS011;4599;50.906;6.786;2023-04-03T08:35:25;3.97;;;1.47;;
9128;SDS011;4599;50.906;6.786;2023-04-03T08:39:26;5.90;;;1.60;;
9128;SDS011;4599;50.906;6.786;2023-04-03T08:43:30;2.60;;;1.63;;
9128;SDS011;4599;50.906;6.786;2023-04-03T08:47:42;3.67;;;2.00;;
9128;SDS011;4599;50.906;6.786;2023-04-03T08:51:54;2.83;;;1.50;;
9128;SDS011;4599;50.906;6.786;2023-04-03T08:56:00;4.47;;;1.40;;
9128;SDS011;4599;50.906;6.786;2023-04-03T09:00:15;3.40;;;1.70;;
9128;SDS011;4599;50.906;6.786;2023-04-03T09:04:19;2.97;;;1.57;;
9128;SDS011;4599;50.906;6.786;2023-04-03T09:08:25;4.93;;;1.50;;
9128;SDS011;4599;50.906;6.786;2023-04-03T09:12:32;3.67;;;1.80;;
9128;SDS011;4599;50.906;6.786;2023-04-03T09:16:39;3.97;;;1.50;;
9128;SDS011;4599;50.906;6.786;2023-04-03T09:20:51;4.30;;;1.60;;
9128;SDS011;4599;50.906;6.786;2023-04-03T09:25:02;2.30;;;1.40;;
9128;SDS011;4599;50.906;6.786;2023-04-03T09:29:14;2.77;;;1.50;;
9128;SDS011;4599;50.906;6.786;2023-04-03T09:33:19;3.13;;;1.30;;
9128;SDS011;4599;50.906;6.786;2023-04-03T09:37:35;2.63;;;1.40;;
9128;SDS011;4599;50.906;6.786;2023-04-03T09:41:43;3.47;;;1.50;;
9128;SDS011;4599;50.906;6.786;2023-04-03T09:50:21;2.93;;;1.23;;
9128;SDS011;4599;50.906;6.786;2023-04-03T09:54:30;3.27;;;1.30;;
9128;SDS011;4599;50.906;6.786;2023-04-03T09:58:36;3.90;;;1.50;;
9128;SDS011;4599;50.906;6.786;2023-04-03T10:02:51;2.30;;;1.30;;
9128;SDS011;4599;50.906;6.786;2023-04-03T10:06:55;2.33;;;1.53;;
9128;SDS011;4599;50.906;6.786;2023-04-03T10:15:20;2.97;;;1.37;;
9128;SDS011;4599;50.906;6.786;2023-04-03T10:19:29;2.63;;;1.30;;
9128;SDS011;4599;50.906;6.786;2023-04-03T10:23:37;2.53;;;1.30;;
9128;SDS011;4599;50.906;6.786;2023-04-03T10:27:46;6.13;;;1.60;;
9128;SDS011;4599;50.906;6.786;2023-04-03T10:31:59;3.57;;;1.17;;
9128;SDS011;4599;50.906;6.786;2023-04-03T10:36:17;2.70;;;1.20;;
9128;SDS011;4599;50.906;6.786;2023-04-03T10:40:29;1.43;;;1.07;;
9128;SDS011;4599;50.906;6.786;2023-04-03T10:44:36;2.33;;;1.20;;
9128;SDS011;4599;50.906;6.786;2023-04-03T10:48:53;3.93;;;1.30;;
9128;SDS011;4599;50.906;6.786;2023-04-03T10:53:05;1.40;;;1.10;;
9128;SDS011;4599;50.906;6.786;2023-04-03T10:57:16;1.90;;;1.00;;
9128;SDS011;4599;50.906;6.786;2023-04-03T11:01:20;5.07;;;1.00;;
9128;SDS011;4599;50.906;6.786;2023-04-03T11:05:29;2.10;;;1.23;;
9128;SDS011;4599;50.906;6.786;2023-04-03T11:09:37;1.47;;;1.03;;
9128;SDS011;4599;50.906;6.786;2023-04-03T11:13:41;2.07;;;1.00;;
9128;SDS011;4599;50.906;6.786;2023-04-03T11:17:48;2.07;;;1.10;;
9128;SDS011;4599;50.906;6.786;2023-04-03T11:21:57;2.43;;;1.07;;
9128;SDS011;4599;50.906;6.786;2023-04-03T11:26:10;2.60;;;1.20;;
9128;SDS011;4599;50.906;6.786;2023-04-03T11:30:15;2.07;;;1.23;;
9128;SDS011;4599;50.906;6.786;2023-04-03T11:34:25;1.70;;;0.97;;
9128;SDS011;4599;50.906;6.786;2023-04-03T11:38:36;2.53;;;1.10;;
9128;SDS011;4599;50.906;6.786;2023-04-03T11:42:42;1.97;;;1.07;;
9128;SDS011;4599;50.906;6.786;2023-04-03T11:46:51;2.33;;;1.30;;
9128;SDS011;4599;50.906;6.786;2023-04-03T11:50:58;1.50;;;1.13;;
9128;SDS011;4599;50.906;6.786;2023-04-03T11:55:01;2.40;;;1.50;;
9128;SDS011;4599;50.906;6.786;2023-04-03T12:03:31;2.00;;;1.30;;
9128;SDS011;4599;50.906;6.786;2023-04-03T12:12:30;3.40;;;1.50;;
9128;SDS011;4599;50.906;6.786;2023-04-03T12:16:41;2.43;;;1.80;;
9128;SDS011;4599;50.906;6.786;2023-04-03T12:20:55;2.40;;;1.47;;
9128;SDS011;4599;50.906;6.786;2023-04-03T12:25:00;2.47;;;1.40;;
9128;SDS011;4599;50.906;6.786;2023-04-03T12:29:38;3.03;;;1.10;;
9128;SDS011;4599;50.906;6.786;2023-04-03T12:33:56;3.10;;;2.07;;
9128;SDS011;4599;50.906;6.786;2023-04-03T12:38:19;3.50;;;2.23;;
9128;SDS011;4599;50.906;6.786;2023-04-03T12:42:39;4.70;;;2.03;;
9128;SDS011;4599;50.906;6.786;2023-04-03T12:46:59;2.23;;;1.40;;
9128;SDS011;4599;50.906;6.786;2023-04-03T12:51:03;2.43;;;1.47;;
9128;SDS011;4599;50.906;6.786;2023-04-03T12:55:07;3.33;;;1.23;;
9128;SDS011;4599;50.906;6.786;2023-04-03T12:59:16;2.00;;;1.37;;
9128;SDS011;4599;50.906;6.786;2023-04-03T13:03:23;3.07;;;1.00;;
9128;SDS011;4599;50.906;6.786;2023-04-03T13:07:29;2.23;;;1.10;;
9128;SDS011;4599;50.906;6.786;2023-04-03T13:11:33;1.10;;;0.90;;
9128;SDS011;4599;50.906;6.786;2023-04-03T13:15:41;1.90;;;1.30;;
9128;SDS011;4599;50.906;6.786;2023-04-03T13:19:45;2.67;;;1.30;;
9128;SDS011;4599;50.906;6.786;2023-04-03T13:23:49;1.63;;;1.10;;
9128;SDS011;4599;50.906;6.786;2023-04-03T13:28:05;1.73;;;1.10;;
9128;SDS011;4599;50.906;6.786;2023-04-03T13:32:15;2.50;;;1.30;;
9128;SDS011;4599;50.906;6.786;2023-04-03T13:36:23;3.07;;;1.00;;
9128;SDS011;4599;50.906;6.786;2023-04-03T13:40:32;1.97;;;1.10;;
9128;SDS011;4599;50.906;6.786;2023-04-03T13:44:47;3.20;;;1.20;;
9128;SDS011;4599;50.906;6.786;2023-04-03T13:48:52;1.70;;;1.10;;
9128;SDS011;4599;50.906;6.786;2023-04-03T13:52:59;2.97;;;1.10;;
9128;SDS011;4599;50.906;6.786;2023-04-03T13:57:03;2.33;;;1.10;;
9128;SDS011;4599;50.906;6.786;2023-04-03T14:01:16;2.03;;;1.10;;
9128;SDS011;4599;50.906;6.786;2023-04-03T14:05:21;1.43;;;1.03;;
9128;SDS011;4599;50.906;6.786;2023-04-03T14:09:26;1.60;;;1.10;;
9128;SDS011;4599;50.906;6.786;2023-04-03T14:13:29;2.00;;;1.17;;
9128;SDS011;4599;50.906;6.786;2023-04-03T14:17:31;2.60;;;1.20;;
9128;SDS011;4599;50.906;6.786;2023-04-03T14:21:32;4.37;;;1.50;;
9128;SDS011;4599;50.906;6.786;2023-04-03T14:25:35;1.37;;;1.10;;
9128;SDS011;4599;50.906;6.786;2023-04-03T14:29:37;4.37;;;1.40;;
9128;SDS011;4599;50.906;6.786;2023-04-03T14:33:39;2.20;;;1.30;;
9128;SDS011;4599;50.906;6.786;2023-04-03T14:37:40;1.83;;;1.00;;
9128;SDS011;4599;50.906;6.786;2023-04-03T14:41:44;3.67;;;1.40;;
9128;SDS011;4599;50.906;6.786;2023-04-03T14:45:48;2.20;;;1.00;;
9128;SDS011;4599;50.906;6.786;2023-04-03T14:49:51;2.73;;;1.20;;
9128;SDS011;4599;50.906;6.786;2023-04-03T14:53:53;3.47;;;1.20;;
9128;SDS011;4599;50.906;6.786;2023-04-03T14:57:56;1.53;;;1.20;;
9128;SDS011;4599;50.906;6.786;2023-04-03T15:01:57;2.37;;;1.33;;
9128;SDS011;4599;50.906;6.786;2023-04-03T15:05:59;1.70;;;1.00;;
9128;SDS011;4599;50.906;6.786;2023-04-03T15:10:02;2.47;;;1.50;;
9128;SDS011;4599;50.906;6.786;2023-04-03T15:14:16;1.47;;;1.10;;
9128;SDS011;4599;50.906;6.786;2023-04-03T15:18:37;2.33;;;1.20;;
9128;SDS011;4599;50.906;6.786;2023-04-03T15:22:39;2.23;;;1.17;;
9128;SDS011;4599;50.906;6.786;2023-04-03T15:26:40;3.30;;;1.43;;
9128;SDS011;4599;50.906;6.786;2023-04-03T15:30:43;1.43;;;1.13;;
9128;SDS011;4599;50.906;6.786;2023-04-03T15:34:45;3.57;;;1.20;;
9128;SDS011;4599;50.906;6.786;2023-04-03T15:38:48;3.60;;;1.30;;
9128;SDS011;4599;50.906;6.786;2023-04-03T15:42:51;3.37;;;1.37;;
9128;SDS011;4599;50.906;6.786;2023-04-03T15:46:56;2.60;;;1.40;;
9128;SDS011;4599;50.906;6.786;2023-04-03T15:50:59;1.90;;;1.20;;
9128;SDS011;4599;50.906;6.786;2023-04-03T15:55:01;2.40;;;1.30;;
9128;SDS011;4599;50.906;6.786;2023-04-03T15:59:03;1.53;;;1.03;;
9128;SDS011;4599;50.906;6.786;2023-04-03T16:03:08;1.67;;;1.00;;
9128;SDS011;4599;50.906;6.786;2023-04-03T16:07:12;4.50;;;1.20;;
9128;SDS011;4599;50.906;6.786;2023-04-03T16:11:13;2.13;;;1.20;;
9128;SDS011;4599;50.906;6.786;2023-04-03T16:15:15;2.07;;;1.30;;
9128;SDS011;4599;50.906;6.786;2023-04-03T16:19:21;2.90;;;1.43;;
9128;SDS011;4599;50.906;6.786;2023-04-03T16:23:25;3.23;;;1.40;;
9128;SDS011;4599;50.906;6.786;2023-04-03T16:27:27;4.47;;;2.00;;
9128;SDS011;4599;50.906;6.786;2023-04-03T16:31:29;3.87;;;1.37;;
9128;SDS011;4599;50.906;6.786;2023-04-03T16:35:34;2.50;;;1.33;;
9128;SDS011;4599;50.906;6.786;2023-04-03T16:39:37;1.90;;;1.43;;
9128;SDS011;4599;50.906;6.786;2023-04-03T16:43:40;1.90;;;1.40;;
9128;SDS011;4599;50.906;6.786;2023-04-03T16:47:46;4.93;;;3.67;;
9128;SDS011;4599;50.906;6.786;2023-04-03T16:51:49;2.87;;;1.40;;
9128;SDS011;4599;50.906;6.786;2023-04-03T16:55:51;4.17;;;1.30;;
9128;SDS011;4599;50.906;6.786;2023-04-03T16:59:53;2.03;;;1.00;;
9128;SDS011;4599;50.906;6.786;2023-04-03T17:03:55;2.63;;;1.37;;
9128;SDS011;4599;50.906;6.786;2023-04-03T17:07:58;4.30;;;1.60;;
9128;SDS011;4599;50.906;6.786;2023-04-03T17:12:00;2.43;;;1.40;;
9128;SDS011;4599;50.906;6.786;2023-04-03T17:16:02;4.77;;;1.50;;
9128;SDS011;4599;50.906;6.786;2023-04-03T17:20:07;4.10;;;1.63;;
9128;SDS011;4599;50.906;6.786;2023-04-03T17:24:12;4.77;;;1.40;;
9128;SDS011;4599;50.906;6.786;2023-04-03T17:28:15;2.90;;;1.37;;
9128;SDS011;4599;50.906;6.786;2023-04-03T17:32:16;2.10;;;1.47;;
9128;SDS011;4599;50.906;6.786;2023-04-03T17:36:18;2.10;;;1.30;;
9128;SDS011;4599;50.906;6.786;2023-04-03T17:40:23;2.50;;;1.00;;
9128;SDS011;4599;50.906;6.786;2023-04-03T17:44:26;2.23;;;1.20;;
9128;SDS011;4599;50.906;6.786;2023-04-03T17:48:28;1.70;;;1.17;;
9128;SDS011;4599;50.906;6.786;2023-04-03T17:52:30;2.17;;;1.10;;
9128;SDS011;4599;50.906;6.786;2023-04-03T17:56:34;1.90;;;1.10;;
9128;SDS011;4599;50.906;6.786;2023-04-03T18:00:36;2.10;;;1.23;;
9128;SDS011;4599;50.906;6.786;2023-04-03T18:04:40;1.93;;;1.50;;
9128;SDS011;4599;50.906;6.786;2023-04-03T18:08:43;3.70;;;1.80;;
9128;SDS011;4599;50.906;6.786;2023-04-03T18:12:49;2.50;;;1.20;;
9128;SDS011;4599;50.906;6.786;2023-04-03T18:16:51;3.17;;;1.70;;
9128;SDS011;4599;50.906;6.786;2023-04-03T18:20:54;3.67;;;1.87;;
9128;SDS011;4599;50.906;6.786;2023-04-03T18:24:55;3.50;;;1.60;;
9128;SDS011;4599;50.906;6.786;2023-04-03T18:29:00;2.60;;;1.53;;
9128;SDS011;4599;50.906;6.786;2023-04-03T18:33:05;6.03;;;2.67;;
9128;SDS011;4599;50.906;6.786;2023-04-03T18:37:07;3.83;;;1.77;;
9128;SDS011;4599;50.906;6.786;2023-04-03T18:41:08;2.80;;;1.80;;
9128;SDS011;4599;50.906;6.786;2023-04-03T18:45:12;4.87;;;1.97;;
9128;SDS011;4599;50.906;6.786;2023-04-03T18:49:18;3.67;;;1.60;;
9128;SDS011;4599;50.906;6.786;2023-04-03T18:53:20;3.30;;;1.40;;
9128;SDS011;4599;50.906;6.786;2023-04-03T18:57:22;2.97;;;1.43;;
9128;SDS011;4599;50.906;6.786;2023-04-03T19:01:24;5.27;;;1.90;;
9128;SDS011;4599;50.906;6.786;2023-04-03T19:05:26;3.30;;;1.70;;
9128;SDS011;4599;50.906;6.786;2023-04-03T19:09:28;2.87;;;1.40;;
9128;SDS011;4599;50.906;6.786;2023-04-03T19:13:29;3.20;;;1.20;;
9128;SDS011;4599;50.906;6.786;2023-04-03T19:17:32;6.30;;;1.70;;
9128;SDS011;4599;50.906;6.786;2023-04-03T19:21:34;3.40;;;1.93;;
9128;SDS011;4599;50.906;6.786;2023-04-03T19:25:35;3.97;;;1.60;;
9128;SDS011;4599;50.906;6.786;2023-04-03T19:29:37;2.17;;;1.47;;
9128;SDS011;4599;50.906;6.786;2023-04-03T19:33:40;7.60;;;1.80;;
9128;SDS011;4599;50.906;6.786;2023-04-03T19:37:41;5.33;;;1.77;;
9128;SDS011;4599;50.906;6.786;2023-04-03T19:41:44;3.47;;;1.77;;
9128;SDS011;4599;50.906;6.786;2023-04-03T19:45:46;2.20;;;1.60;;
9128;SDS011;4599;50.906;6.786;2023-04-03T19:49:49;2.83;;;1.53;;
9128;SDS011;4599;50.906;6.786;2023-04-03T19:53:50;6.47;;;1.67;;
9128;SDS011;4599;50.906;6.786;2023-04-03T19:57:52;3.37;;;1.87;;
9128;SDS011;4599;50.906;6.786;2023-04-03T20:01:54;3.47;;;1.37;;
9128;SDS011;4599;50.906;6.786;2023-04-03T20:05:57;4.83;;;1.57;;
9128;SDS011;4599;50.906;6.786;2023-04-03T20:09:58;2.97;;;1.60;;
9128;SDS011;4599;50.906;6.786;2023-04-03T20:14:00;5.60;;;1.80;;
9128;SDS011;4599;50.906;6.786;2023-04-03T20:18:01;3.17;;;1.50;;
9128;SDS011;4599;50.906;6.786;2023-04-03T20:22:05;5.13;;;1.57;;
9128;SDS011;4599;50.906;6.786;2023-04-03T20:26:07;4.10;;;1.80;;
9128;SDS011;4599;50.906;6.786;2023-04-03T20:30:15;4.63;;;1.50;;
9128;SDS011;4599;50.906;6.786;2023-04-03T20:34:17;2.33;;;1.40;;
9128;SDS011;4599;50.906;6.786;2023-04-03T20:38:20;3.10;;;1.40;;
9128;SDS011;4599;50.906;6.786;2023-04-03T20:42:21;2.57;;;1.60;;
9128;SDS011;4599;50.906;6.786;2023-04-03T20:46:23;2.67;;;1.60;;
9128;SDS011;4599;50.906;6.786;2023-04-03T20:50:27;3.93;;;1.60;;
9128;SDS011;4599;50.906;6.786;2023-04-03T20:54:31;4.47;;;1.80;;
9128;SDS011;4599;50.906;6.786;2023-04-03T20:58:34;2.33;;;1.37;;
9128;SDS011;4599;50.906;6.786;2023-04-03T21:02:36;2.43;;;1.50;;
9128;SDS011;4599;50.906;6.786;2023-04-03T21:20:02;3.23;;;1.70;;
9128;SDS011;4599;50.906;6.786;2023-04-03T21:24:04;3.20;;;1.57;;
9128;SDS011;4599;50.906;6.786;2023-04-03T21:28:07;1.83;;;1.30;;
9128;SDS011;4599;50.906;6.786;2023-04-03T21:32:08;3.93;;;1.80;;
9128;SDS011;4599;50.906;6.786;2023-04-03T21:36:11;2.87;;;1.80;;
9128;SDS011;4599;50.906;6.786;2023-04-03T21:40:13;1.93;;;1.40;;
9128;SDS011;4599;50.906;6.786;2023-04-03T21:44:14;3.63;;;1.80;;
9128;SDS011;4599;50.906;6.786;2023-04-03T21:48:16;5.10;;;1.90;;
9128;SDS011;4599;50.906;6.786;2023-04-03T21:52:19;4.70;;;1.67;;
9128;SDS011;4599;50.906;6.786;2023-04-03T21:56:20;3.60;;;1.60;;
9128;SDS011;4599;50.906;6.786;2023-04-03T22:00:25;2.40;;;1.40;;
9128;SDS011;4599;50.906;6.786;2023-04-03T22:04:27;1.70;;;1.30;;
9128;SDS011;4599;50.906;6.786;2023-04-03T22:08:30;3.50;;;1.30;;
9128;SDS011;4599;50.906;6.786;2023-04-03T22:12:31;2.97;;;1.47;;
9128;SDS011;4599;50.906;6.786;2023-04-03T22:16:33;2.03;;;1.50;;
9128;SDS011;4599;50.906;6.786;2023-04-03T22:20:36;2.90;;;1.63;;
9128;SDS011;4599;50.906;6.786;2023-04-03T22:24:39;3.93;;;1.50;;
9128;SDS011;4599;50.906;6.786;2023-04-03T22:28:41;3.10;;;1.60;;
9128;SDS011;4599;50.906;6.786;2023-04-03T22:32:44;4.23;;;1.70;;
9128;SDS011;4599;50.906;6.786;2023-04-03T22:36:45;4.40;;;1.70;;
9128;SDS011;4599;50.906;6.786;2023-04-03T22:40:49;3.63;;;2.00;;
9128;SDS011;4599;50.906;6.786;2023-04-03T22:44:56;4.80;;;1.87;;
9128;SDS011;4599;50.906;6.786;2023-04-03T22:48:57;5.60;;;1.77;;
9128;SDS011;4599;50.906;6.786;2023-04-03T22:52:59;4.83;;;1.50;;
9128;SDS011;4599;50.906;6.786;2023-04-03T22:57:04;4.13;;;1.43;;
9128;SDS011;4599;50.906;6.786;2023-04-03T23:01:07;2.53;;;1.70;;
9128;SDS011;4599;50.906;6.786;2023-04-03T23:05:10;1.90;;;1.50;;
9128;SDS011;4599;50.906;6.786;2023-04-03T23:09:11;4.20;;;1.40;;
9128;SDS011;4599;50.906;6.786;2023-04-03T23:13:14;2.50;;;1.30;;
9128;SDS011;4599;50.906;6.786;2023-04-03T23:17:16;2.73;;;1.40;;
9128;SDS011;4599;50.906;6.786;2023-04-03T23:21:20;2.50;;;1.33;;
9128;SDS011;4599;50.906;6.786;2023-04-03T23:25:23;2.40;;;1.30;;
9128;SDS011;4599;50.906;6.786;2023-04-03T23:29:28;2.00;;;1.50;;
9128;SDS011;4599;50.906;6.786;2023-04-03T23:33:31;3.30;;;1.30;;
9128;SDS011;4599;50.906;6.786;2023-04-03T23:37:33;3.30;;;1.60;;
9128;SDS011;4599;50.906;6.786;2023-04-03T23:41:35;3.17;;;1.40;;
9128;SDS011;4599;50.906;6.786;2023-04-03T23:45:39;1.37;;;1.27;;
9128;SDS011;4599;50.906;6.786;2023-04-03T23:49:42;4.93;;;1.40;;
9128;SDS011;4599;50.906;6.786;2023-04-03T23:53:44;4.00;;;1.30;;
9128;SDS011;4599;50.906;6.786;2023-04-03T23:57:45;3.60;;;1.40;;
